AirNav   Everest Fuels
 
 1432 users online  

KNJW Joe Williams Naval Outlying Field
Meridian, Mississippi, USA

GOING TO MERIDIAN?


FAA INFORMATION EFFECTIVE 03 JANUARY 2019

Location

FAA Identifier: NJW
Lat/Long: 32-47-56.1360N / 088-50-04.2950W
32-47.935600N / 088-50.071583W
32.7989267 / -88.8345264
(estimated)
Elevation: 539.1 ft. / 164 m (estimated)
Variation: 01W (2010)
Time zone: UTC -6 (UTC -5 during Daylight Saving Time)
Zip code: 39354

Airport Operations

Airport use: Private use. Permission required prior to landing
Control tower: yes
ARTCC: MEMPHIS CENTER
FSS: GREENWOOD FLIGHT SERVICE STATION
Attendance: MON-FRI 0800-1600
FOR OTHER HOURS OF OPERATION CTC MERIDIAN NAS BASE OPERATIONS.
Segmented circle: no
Lights: AVBL ONLY DURING HRS OF OPERATION.

Airport Communications

BRAVO TOWER TOWER: 118.475 279.2 [0800-1730 MON-FRI]
EMERG: 121.5 243.0
FCLP: 355.8
WX AWOS-3P at MPE (15 nm W): 118.725 (601-663-0040)
  • DURG HRS ATCT CLSD CTC NAVY MC CAIN ATCT ON FREQ 340.2.

Nearby radio navigation aids

VOR radial/distance  VOR name  Freq  Var
MEIr352/25.3MERIDIAN VORTAC117.0005E
EWAr320/32.2KEWANEE VORTAC113.8004E

Airport Services

Fuel available: A++

Runway Information

Runway 14/32

Dimensions: 8000 x 150 ft. / 2438 x 46 m
Surface: asphalt/concrete
Weight bearing capacity: 
PCN 30 /R/C/W/T
Runway edge lights: medium intensity
RUNWAY 14  RUNWAY 32
Latitude: 32-48.394717N32-47.476467N
Longitude: 088-50.632283W088-49.510883W
Elevation: 517.5 ft.539.1 ft.
Traffic pattern: leftleft
Runway heading: 135 magnetic, 134 true
USN FIL F0065-10 DATA PUBLISHED JUN 10 2010 IS PER NGA SURVEY 09-6010 DATED FEB 2009.
315 magnetic, 314 true
Touchdown point: yes, no lightsyes, no lights

Airport Ownership and Management from official FAA records

Ownership: U.S. Navy
Owner: US NAVY
COMTRAWING 1
NAS MERIDIAN, MS 39309

Additional Remarks

E60-32 HOOK E28(B) (1250')
E60-14 HOOK E28(B) (1250')
INTENSIVE LOCAL JET TRAFFIC TO 5000' WITHIN THE TRANSITION AREA.
NO TRANSIENT MAINTENANCE OR SERVICE AVAILABLE.
USN ELECTRIC OR AIR TYPE JET ACFT STARTING UNITS AVAILABLE.
RADAR SFA 134.1X, RADAR SFA 266.8X, RADAR SFA 300.4X, RADAR SFA 310.8X, RADAR SFA 322.0X, RADAR SFA 325.2X, RADAR SFA 328.4X, RADAR SFA 346.0X, RADAR SFA 363.6X.

Instrument Procedures

NOTE: All procedures below are presented as PDF files. If you need a reader for these files, you should download the free Adobe Reader.

NOT FOR NAVIGATION. Please procure official charts for flight.
FAA instrument procedures published for use from 3 January 2019 at 0901Z to 31 January 2019 at 0900Z.

Radar Approach Procedures available   download (55KB)

Other nearby airports with instrument procedures:

KMPE - Philadelphia Municipal Airport (15 nm W)
KNMM - Meridian Naval Air Station (Mc Cain Field) (20 nm SE)
KLMS - Louisville Winston County Airport (24 nm NW)
KMEI - Key Field Airport (28 nm S)
KAIV - George Downer Airport (37 nm NE)
 
Loc | Ops | Rwys | IFR | FBO | Links
Com | Nav | Svcs | Stats | Notes
Area around KNJW (Joe Williams Naval Outlying Field)
 
Road maps at: MapQuest Bing Google
 
Aerial photo
No photo
 
Sectional chart

 
Airport distance calculator
Flying to Joe Williams Naval Outlying Field? Find the distance to fly.

From to KNJW

Sunrise and sunset
Times for 18-Jan-2019
 Local
(UTC-6)
 Zulu
(UTC)
Morning civil twilight06:3212:32
Sunrise06:5812:58
Sunset17:1323:13
Evening civil twilight17:4023:40

Current date and time
Zulu (UTC)  18-Jan-2019 17:04:06
Local (UTC-6)  18-Jan-2019 11:04:06
 
METAR
KNMM 
21nm SE 
181656Z 14003KT 10SM OVC005 13/11 A3013 RMK AO2 SLP214 T01280111 $
KMEI 
28nm S 
181658Z 00000KT 3SM BR OVC003 12/11 A3013 RMK AO2 SLP201 I1000 T01220111
KSTF 
38nm N 
181655Z AUTO 00000KT 10SM OVC007 12/11 A3013 RMK AO2 PWINO
KGTR 
41nm N 
181656Z 05003KT 10SM OVC011 12/11 A3013 RMK AO2 CIG 007V014 SLP206 T01220111
TAF
KNMM 
21nm SE 
1815/1915 VRB03KT 9999 OVC005 QNH3001INS FM181900 15005KT 9999 SCT008 BKN015 OVC022 QNH2997INS FM182300 15005KT 9999 SCT015 OVC022 552609 553505 QNH2997INS FM190400 16007KT 4800 BR BKN008 OVC015 552609 553505 QNH2991INS FM190600 18008KT 4800 -RA BR OVC006 WS020/21038 552609 553505 QNH2988INS FM191500 19012KT 1600 +SHRA VCTS SCT005CB OVC013 WS020/23040 641109 552609 553505 QNH2971INS T12/1815Z T18/1914Z FN20035
NOTAMs
Click for the latest NOTAMs
NOTAMs are issued by the DoD/FAA and will open in a separate window not controlled by AirNav.

 

 
 

Would you like to see your business listed on this page?

 If your business provides an interesting product or service to pilots, flight crews, aircraft, or users of the Joe Williams Naval Outlying Field, you should consider listing it here.  To start the listing process, click on the button below
 
Add a business
 

Other Pages about Joe Williams Naval Outlying Field

Update a link
 
Copyright © AirNav, LLC. All rights reserved. Privacy Policy  Contact